sensor_id;sensor_type;location;lat;lon;timestamp;pressure;altitude;pressure_sealevel;temperature;humidity
62103;BME280;48077;48.104;11.702;2023-02-01T00:01:26;96008.63;;;1.88;80.57
62103;BME280;48077;48.104;11.702;2023-02-01T00:03:50;95995.13;;;1.83;80.70
62103;BME280;48077;48.104;11.702;2023-02-01T00:06:13;95999.44;;;1.84;80.76
62103;BME280;48077;48.104;11.702;2023-02-01T00:08:37;96012.88;;;1.89;80.66
62103;BME280;48077;48.104;11.702;2023-02-01T00:11:02;96014.53;;;1.90;80.89
62103;BME280;48077;48.104;11.702;2023-02-01T00:13:30;96003.22;;;1.90;80.48
62103;BME280;48077;48.104;11.702;2023-02-01T00:15:54;95995.78;;;1.85;79.43
62103;BME280;48077;48.104;11.702;2023-02-01T00:18:17;95988.09;;;1.84;79.61
62103;BME280;48077;48.104;11.702;2023-02-01T00:20:45;96007.47;;;1.91;79.53
62103;BME280;48077;48.104;11.702;2023-02-01T00:23:09;96003.03;;;1.91;79.30
62103;BME280;48077;48.104;11.702;2023-02-01T00:25:32;95993.50;;;1.90;79.29
62103;BME280;48077;48.104;11.702;2023-02-01T00:27:56;95979.03;;;1.86;79.66
62103;BME280;48077;48.104;11.702;2023-02-01T00:30:21;95981.66;;;1.86;79.48
62103;BME280;48077;48.104;11.702;2023-02-01T00:32:45;95976.72;;;1.83;78.96
62103;BME280;48077;48.104;11.702;2023-02-01T00:35:08;95986.75;;;1.96;78.94
62103;BME280;48077;48.104;11.702;2023-02-01T00:37:32;95973.63;;;1.88;78.96
62103;BME280;48077;48.104;11.702;2023-02-01T00:39:55;95982.63;;;1.93;78.92
62103;BME280;48077;48.104;11.702;2023-02-01T00:42:18;95977.88;;;1.89;78.89
62103;BME280;48077;48.104;11.702;2023-02-01T00:44:42;95976.91;;;1.90;78.89
62103;BME280;48077;48.104;11.702;2023-02-01T00:47:05;95977.88;;;1.97;78.12
62103;BME280;48077;48.104;11.702;2023-02-01T00:49:28;95990.34;;;2.03;78.77
62103;BME280;48077;48.104;11.702;2023-02-01T00:51:52;95983.63;;;2.00;79.71
62103;BME280;48077;48.104;11.702;2023-02-01T00:54:15;95986.25;;;2.00;80.29
62103;BME280;48077;48.104;11.702;2023-02-01T00:56:39;95976.25;;;1.88;80.64
62103;BME280;48077;48.104;11.702;2023-02-01T00:59:02;95973.94;;;1.85;82.47
62103;BME280;48077;48.104;11.702;2023-02-01T01:01:26;95983.63;;;1.84;84.52
62103;BME280;48077;48.104;11.702;2023-02-01T01:03:53;95987.44;;;1.73;86.62
62103;BME280;48077;48.104;11.702;2023-02-01T01:06:20;95981.53;;;1.55;88.95
62103;BME280;48077;48.104;11.702;2023-02-01T01:08:44;95977.22;;;1.37;90.94
62103;BME280;48077;48.104;11.702;2023-02-01T01:11:13;95992.84;;;1.39;92.76
62103;BME280;48077;48.104;11.702;2023-02-01T01:13:37;95980.69;;;1.30;94.48
62103;BME280;48077;48.104;11.702;2023-02-01T01:16:04;95974.25;;;1.16;96.07
62103;BME280;48077;48.104;11.702;2023-02-01T01:18:29;95983.28;;;1.13;96.98
62103;BME280;48077;48.104;11.702;2023-02-01T01:20:53;95976.88;;;1.08;97.09
62103;BME280;48077;48.104;11.702;2023-02-01T01:23:16;95983.94;;;1.07;97.88
62103;BME280;48077;48.104;11.702;2023-02-01T01:25:40;95990.34;;;1.05;98.62
62103;BME280;48077;48.104;11.702;2023-02-01T01:28:03;95984.44;;;1.03;98.71
62103;BME280;48077;48.104;11.702;2023-02-01T01:30:26;95966.53;;;0.98;99.07
62103;BME280;48077;48.104;11.702;2023-02-01T01:32:51;95956.31;;;0.95;99.08
62103;BME280;48077;48.104;11.702;2023-02-01T01:35:15;95965.69;;;0.97;99.81
62103;BME280;48077;48.104;11.702;2023-02-01T01:37:38;95969.78;;;1.00;99.56
62103;BME280;48077;48.104;11.702;2023-02-01T01:40:03;95964.38;;;1.01;99.32
62103;BME280;48077;48.104;11.702;2023-02-01T01:42:27;95956.84;;;0.98;99.71
62103;BME280;48077;48.104;11.702;2023-02-01T01:45:03;95965.19;;;1.02;100.00
62103;BME280;48077;48.104;11.702;2023-02-01T01:47:39;95957.50;;;1.00;100.00
62103;BME280;48077;48.104;11.702;2023-02-01T01:50:07;95937.94;;;0.95;100.00
62103;BME280;48077;48.104;11.702;2023-02-01T01:52:34;95937.13;;;1.03;100.00
62103;BME280;48077;48.104;11.702;2023-02-01T01:54:59;95917.28;;;0.92;100.00
62103;BME280;48077;48.104;11.702;2023-02-01T01:57:27;95921.38;;;0.94;100.00
62103;BME280;48077;48.104;11.702;2023-02-01T02:00:18;95918.41;;;0.97;100.00
62103;BME280;48077;48.104;11.702;2023-02-01T02:02:46;95902.63;;;0.89;100.00
62103;BME280;48077;48.104;11.702;2023-02-01T02:05:10;95912.50;;;0.95;100.00
62103;BME280;48077;48.104;11.702;2023-02-01T02:07:37;95916.78;;;0.96;100.00
62103;BME280;48077;48.104;11.702;2023-02-01T02:10:05;95895.59;;;0.82;100.00
62103;BME280;48077;48.104;11.702;2023-02-01T02:12:29;95911.66;;;0.87;100.00
62103;BME280;48077;48.104;11.702;2023-02-01T02:14:52;95909.19;;;0.85;100.00
62103;BME280;48077;48.104;11.702;2023-02-01T02:17:34;95926.28;;;0.89;100.00
62103;BME280;48077;48.104;11.702;2023-02-01T02:25:46;95931.72;;;0.88;100.00
62103;BME280;48077;48.104;11.702;2023-02-01T02:31:27;95935.97;;;0.89;100.00
62103;BME280;48077;48.104;11.702;2023-02-01T02:39:34;95941.75;;;1.00;100.00
62103;BME280;48077;48.104;11.702;2023-02-01T02:42:12;95943.22;;;1.03;100.00
62103;BME280;48077;48.104;11.702;2023-02-01T02:45:08;95932.22;;;1.08;100.00
62103;BME280;48077;48.104;11.702;2023-02-01T02:50:36;95917.25;;;1.08;100.00
62103;BME280;48077;48.104;11.702;2023-02-01T02:53:27;95918.41;;;1.06;100.00
62103;BME280;48077;48.104;11.702;2023-02-01T02:56:12;95886.72;;;0.99;100.00
62103;BME280;48077;48.104;11.702;2023-02-01T02:58:58;95912.34;;;1.13;100.00
62103;BME280;48077;48.104;11.702;2023-02-01T03:01:40;95915.94;;;1.12;100.00
62103;BME280;48077;48.104;11.702;2023-02-01T03:04:23;95906.28;;;1.13;100.00
62103;BME280;48077;48.104;11.702;2023-02-01T03:06:48;95913.81;;;1.16;100.00
62103;BME280;48077;48.104;11.702;2023-02-01T03:09:21;95919.44;;;1.21;100.00
62103;BME280;48077;48.104;11.702;2023-02-01T03:11:47;95896.44;;;1.15;100.00
62103;BME280;48077;48.104;11.702;2023-02-01T03:14:32;95896.59;;;1.13;100.00
62103;BME280;48077;48.104;11.702;2023-02-01T03:17:08;95900.69;;;1.24;100.00
62103;BME280;48077;48.104;11.702;2023-02-01T03:19:40;95886.25;;;1.12;100.00
62103;BME280;48077;48.104;11.702;2023-02-01T03:22:15;95906.09;;;1.23;100.00
62103;BME280;48077;48.104;11.702;2023-02-01T03:24:55;95890.53;;;1.21;100.00
62103;BME280;48077;48.104;11.702;2023-02-01T03:27:30;95899.38;;;1.28;100.00
62103;BME280;48077;48.104;11.702;2023-02-01T03:32:31;95886.06;;;1.30;100.00
62103;BME280;48077;48.104;11.702;2023-02-01T03:35:15;95898.06;;;1.32;100.00
62103;BME280;48077;48.104;11.702;2023-02-01T03:37:41;95874.56;;;1.23;99.95
62103;BME280;48077;48.104;11.702;2023-02-01T03:40:07;95891.00;;;1.33;100.00
62103;BME280;48077;48.104;11.702;2023-02-01T03:42:40;95888.88;;;1.28;99.59
62103;BME280;48077;48.104;11.702;2023-02-01T03:45:39;95882.78;;;1.28;99.81
62103;BME280;48077;48.104;11.702;2023-02-01T03:48:06;95885.22;;;1.37;98.96
62103;BME280;48077;48.104;11.702;2023-02-01T03:50:31;95892.97;;;1.39;99.23
62103;BME280;48077;48.104;11.702;2023-02-01T03:53:03;95880.47;;;1.41;98.45
62103;BME280;48077;48.104;11.702;2023-02-01T03:55:29;95876.03;;;1.33;98.84
62103;BME280;48077;48.104;11.702;2023-02-01T03:58:01;95887.38;;;1.42;98.69
62103;BME280;48077;48.104;11.702;2023-02-01T04:00:27;95881.63;;;1.38;98.30
62103;BME280;48077;48.104;11.702;2023-02-01T04:02:51;95886.38;;;1.43;98.34
62103;BME280;48077;48.104;11.702;2023-02-01T04:05:15;95878.00;;;1.39;97.78
62103;BME280;48077;48.104;11.702;2023-02-01T04:07:39;95879.31;;;1.44;97.63
62103;BME280;48077;48.104;11.702;2023-02-01T04:10:03;95869.44;;;1.46;97.20
62103;BME280;48077;48.104;11.702;2023-02-01T04:12:27;95882.28;;;1.49;97.01
62103;BME280;48077;48.104;11.702;2023-02-01T04:14:50;95874.56;;;1.39;97.01
62103;BME280;48077;48.104;11.702;2023-02-01T04:17:13;95894.59;;;1.48;96.64
62103;BME280;48077;48.104;11.702;2023-02-01T04:19:37;95881.94;;;1.44;96.35
62103;BME280;48077;48.104;11.702;2023-02-01T04:22:00;95870.63;;;1.35;96.85
62103;BME280;48077;48.104;11.702;2023-02-01T04:24:23;95892.94;;;1.47;96.34
62103;BME280;48077;48.104;11.702;2023-02-01T04:26:47;95883.25;;;1.56;95.34
62103;BME280;48077;48.104;11.702;2023-02-01T04:29:10;95878.31;;;1.61;95.04
62103;BME280;48077;48.104;11.702;2023-02-01T04:31:34;95882.41;;;1.64;94.69
62103;BME280;48077;48.104;11.702;2023-02-01T04:33:58;95872.06;;;1.54;94.95
62103;BME280;48077;48.104;11.702;2023-02-01T04:36:22;95882.75;;;1.60;94.65
62103;BME280;48077;48.104;11.702;2023-02-01T04:38:45;95881.09;;;1.59;94.80
62103;BME280;48077;48.104;11.702;2023-02-01T04:41:08;95864.16;;;1.62;94.45
62103;BME280;48077;48.104;11.702;2023-02-01T04:43:32;95864.84;;;1.56;94.26
62103;BME280;48077;48.104;11.702;2023-02-01T04:45:55;95862.19;;;1.64;94.11
62103;BME280;48077;48.104;11.702;2023-02-01T04:48:19;95865.34;;;1.59;93.95
62103;BME280;48077;48.104;11.702;2023-02-01T04:50:43;95877.00;;;1.65;93.53
62103;BME280;48077;48.104;11.702;2023-02-01T04:53:08;95875.19;;;1.57;93.45
62103;BME280;48077;48.104;11.702;2023-02-01T04:55:31;95879.97;;;1.54;93.21
62103;BME280;48077;48.104;11.702;2023-02-01T04:57:54;95895.41;;;1.65;92.91
62103;BME280;48077;48.104;11.702;2023-02-01T05:00:19;95880.28;;;1.59;93.46
62103;BME280;48077;48.104;11.702;2023-02-01T05:02:43;95883.06;;;1.66;92.71
62103;BME280;48077;48.104;11.702;2023-02-01T05:05:06;95881.59;;;1.71;91.95
62103;BME280;48077;48.104;11.702;2023-02-01T05:07:30;95860.22;;;1.66;91.75
62103;BME280;48077;48.104;11.702;2023-02-01T05:09:53;95877.47;;;1.69;92.47
62103;BME280;48077;48.104;11.702;2023-02-01T05:12:16;95852.69;;;1.55;92.47
62103;BME280;48077;48.104;11.702;2023-02-01T05:14:58;95872.91;;;1.63;91.97
62103;BME280;48077;48.104;11.702;2023-02-01T05:17:22;95870.28;;;1.63;91.98
62103;BME280;48077;48.104;11.702;2023-02-01T05:19:45;95877.81;;;1.66;92.12
62103;BME280;48077;48.104;11.702;2023-02-01T05:22:08;95877.97;;;1.64;91.80
62103;BME280;48077;48.104;11.702;2023-02-01T05:24:32;95876.34;;;1.63;91.56
62103;BME280;48077;48.104;11.702;2023-02-01T05:26:55;95873.38;;;1.66;91.66
62103;BME280;48077;48.104;11.702;2023-02-01T05:29:19;95872.56;;;1.66;91.61
62103;BME280;48077;48.104;11.702;2023-02-01T05:31:44;95882.06;;;1.67;91.72
62103;BME280;48077;48.104;11.702;2023-02-01T05:34:08;95872.25;;;1.60;90.94
62103;BME280;48077;48.104;11.702;2023-02-01T05:36:31;95886.50;;;1.66;90.90
62103;BME280;48077;48.104;11.702;2023-02-01T05:38:55;95884.88;;;1.65;91.09
62103;BME280;48077;48.104;11.702;2023-02-01T05:41:18;95895.06;;;1.68;90.30
62103;BME280;48077;48.104;11.702;2023-02-01T05:43:42;95888.81;;;1.69;90.51
62103;BME280;48077;48.104;11.702;2023-02-01T05:46:05;95890.97;;;1.66;90.82
62103;BME280;48077;48.104;11.702;2023-02-01T05:48:28;95884.69;;;1.67;90.56
62103;BME280;48077;48.104;11.702;2023-02-01T05:50:54;95865.50;;;1.58;90.51
62103;BME280;48077;48.104;11.702;2023-02-01T05:53:17;95862.84;;;1.58;90.72
62103;BME280;48077;48.104;11.702;2023-02-01T05:55:41;95870.28;;;1.54;90.73
62103;BME280;48077;48.104;11.702;2023-02-01T05:58:05;95878.97;;;1.63;90.44
62103;BME280;48077;48.104;11.702;2023-02-01T06:00:28;95856.81;;;1.49;91.10
62103;BME280;48077;48.104;11.702;2023-02-01T06:02:52;95856.50;;;1.52;91.57
62103;BME280;48077;48.104;11.702;2023-02-01T06:05:15;95847.44;;;1.47;91.63
62103;BME280;48077;48.104;11.702;2023-02-01T06:07:38;95859.25;;;1.59;91.46
62103;BME280;48077;48.104;11.702;2023-02-01T06:10:02;95858.94;;;1.54;91.10
62103;BME280;48077;48.104;11.702;2023-02-01T06:12:25;95854.16;;;1.57;91.18
62103;BME280;48077;48.104;11.702;2023-02-01T06:14:51;95847.09;;;1.58;91.18
62103;BME280;48077;48.104;11.702;2023-02-01T06:17:14;95853.66;;;1.62;91.21
62103;BME280;48077;48.104;11.702;2023-02-01T06:19:37;95862.53;;;1.61;91.46
62103;BME280;48077;48.104;11.702;2023-02-01T06:22:01;95874.00;;;1.68;90.96
62103;BME280;48077;48.104;11.702;2023-02-01T06:24:24;95861.38;;;1.64;90.78
62103;BME280;48077;48.104;11.702;2023-02-01T06:26:47;95848.59;;;1.52;91.28
62103;BME280;48077;48.104;11.702;2023-02-01T06:29:11;95859.09;;;1.60;90.84
62103;BME280;48077;48.104;11.702;2023-02-01T06:31:35;95875.19;;;1.66;90.45
62103;BME280;48077;48.104;11.702;2023-02-01T06:33:58;95871.38;;;1.68;89.81
62103;BME280;48077;48.104;11.702;2023-02-01T06:36:22;95886.00;;;1.71;89.82
62103;BME280;48077;48.104;11.702;2023-02-01T06:38:45;95875.66;;;1.69;89.76
62103;BME280;48077;48.104;11.702;2023-02-01T06:41:09;95883.06;;;1.66;90.23
62103;BME280;48077;48.104;11.702;2023-02-01T06:43:33;95868.75;;;1.68;90.25
62103;BME280;48077;48.104;11.702;2023-02-01T06:46:01;95870.09;;;1.64;90.21
62103;BME280;48077;48.104;11.702;2023-02-01T06:48:25;95867.00;;;1.60;90.21
62103;BME280;48077;48.104;11.702;2023-02-01T06:50:49;95868.31;;;1.56;90.53
62103;BME280;48077;48.104;11.702;2023-02-01T06:53:12;95868.78;;;1.60;90.68
62103;BME280;48077;48.104;11.702;2023-02-01T06:55:35;95886.03;;;1.63;90.81
62103;BME280;48077;48.104;11.702;2023-02-01T06:57:59;95869.63;;;1.60;90.48
62103;BME280;48077;48.104;11.702;2023-02-01T07:00:24;95883.22;;;1.64;90.72
62103;BME280;48077;48.104;11.702;2023-02-01T07:02:48;95867.31;;;1.57;90.41
62103;BME280;48077;48.104;11.702;2023-02-01T07:05:11;95882.06;;;1.67;90.37
62103;BME280;48077;48.104;11.702;2023-02-01T07:07:35;95875.03;;;1.67;90.40
62103;BME280;48077;48.104;11.702;2023-02-01T07:09:58;95869.09;;;1.65;90.65
62103;BME280;48077;48.104;11.702;2023-02-01T07:12:21;95881.91;;;1.68;90.44
62103;BME280;48077;48.104;11.702;2023-02-01T07:14:45;95869.91;;;1.66;90.67
62103;BME280;48077;48.104;11.702;2023-02-01T07:17:08;95877.47;;;1.69;90.31
62103;BME280;48077;48.104;11.702;2023-02-01T07:19:31;95869.41;;;1.70;90.48
62103;BME280;48077;48.104;11.702;2023-02-01T07:21:54;95884.88;;;1.73;90.37
62103;BME280;48077;48.104;11.702;2023-02-01T07:24:18;95860.06;;;1.59;90.60
62103;BME280;48077;48.104;11.702;2023-02-01T07:26:41;95868.09;;;1.74;90.00
62103;BME280;48077;48.104;11.702;2023-02-01T07:29:05;95872.69;;;1.80;89.69
62103;BME280;48077;48.104;11.702;2023-02-01T07:31:28;95841.13;;;1.72;89.17
62103;BME280;48077;48.104;11.702;2023-02-01T07:33:52;95849.66;;;1.82;89.44
62103;BME280;48077;48.104;11.702;2023-02-01T07:36:17;95836.53;;;1.74;89.65
62103;BME280;48077;48.104;11.702;2023-02-01T07:38:43;95827.19;;;1.72;88.80
62103;BME280;48077;48.104;11.702;2023-02-01T07:41:07;95838.47;;;1.80;88.38
62103;BME280;48077;48.104;11.702;2023-02-01T07:43:32;95836.63;;;1.89;88.14
62103;BME280;48077;48.104;11.702;2023-02-01T07:45:56;95840.59;;;1.85;88.26
62103;BME280;48077;48.104;11.702;2023-02-01T07:48:21;95835.69;;;1.82;88.37
62103;BME280;48077;48.104;11.702;2023-02-01T07:50:44;95839.13;;;1.82;88.44
62103;BME280;48077;48.104;11.702;2023-02-01T07:53:08;95845.84;;;1.85;88.34
62103;BME280;48077;48.104;11.702;2023-02-01T07:55:31;95845.53;;;1.88;87.28
62103;BME280;48077;48.104;11.702;2023-02-01T07:57:57;95827.97;;;1.80;87.48
62103;BME280;48077;48.104;11.702;2023-02-01T08:00:21;95848.47;;;1.93;87.47
62103;BME280;48077;48.104;11.702;2023-02-01T08:03:04;95859.81;;;1.94;86.44
62103;BME280;48077;48.104;11.702;2023-02-01T08:05:27;95852.91;;;1.93;86.09
62103;BME280;48077;48.104;11.702;2023-02-01T08:07:51;95853.56;;;1.95;86.08
62103;BME280;48077;48.104;11.702;2023-02-01T08:10:14;95877.06;;;2.05;84.80
62103;BME280;48077;48.104;11.702;2023-02-01T08:12:38;95875.88;;;2.07;85.05
62103;BME280;48077;48.104;11.702;2023-02-01T08:15:02;95877.34;;;2.10;85.04
62103;BME280;48077;48.104;11.702;2023-02-01T08:17:25;95885.06;;;2.11;84.32
62103;BME280;48077;48.104;11.702;2023-02-01T08:19:50;95877.84;;;2.13;83.42
62103;BME280;48077;48.104;11.702;2023-02-01T08:22:14;95879.94;;;2.18;83.32
62103;BME280;48077;48.104;11.702;2023-02-01T08:24:37;95891.66;;;2.15;83.88
62103;BME280;48077;48.104;11.702;2023-02-01T08:27:03;95880.44;;;2.21;82.61
62103;BME280;48077;48.104;11.702;2023-02-01T08:29:26;95884.88;;;2.21;82.35
62103;BME280;48077;48.104;11.702;2023-02-01T08:31:50;95883.06;;;2.21;82.30
62103;BME280;48077;48.104;11.702;2023-02-01T08:34:13;95877.00;;;2.21;81.89
62103;BME280;48077;48.104;11.702;2023-02-01T08:36:37;95907.84;;;2.35;81.49
62103;BME280;48077;48.104;11.702;2023-02-01T08:39:02;95899.78;;;2.37;80.95
62103;BME280;48077;48.104;11.702;2023-02-01T08:41:29;95902.38;;;2.45;80.45
62103;BME280;48077;48.104;11.702;2023-02-01T08:43:53;95904.31;;;2.51;79.68
62103;BME280;48077;48.104;11.702;2023-02-01T08:46:17;95893.47;;;2.54;79.09
62103;BME280;48077;48.104;11.702;2023-02-01T08:48:40;95878.63;;;2.53;78.57
62103;BME280;48077;48.104;11.702;2023-02-01T08:51:06;95894.81;;;2.73;77.82
62103;BME280;48077;48.104;11.702;2023-02-01T08:53:30;95898.56;;;2.79;76.74
62103;BME280;48077;48.104;11.702;2023-02-01T08:55:53;95893.94;;;2.81;76.88
62103;BME280;48077;48.104;11.702;2023-02-01T08:58:16;95879.25;;;2.87;76.60
62103;BME280;48077;48.104;11.702;2023-02-01T09:00:40;95872.16;;;2.87;76.35
62103;BME280;48077;48.104;11.702;2023-02-01T09:03:03;95870.81;;;2.91;76.86
62103;BME280;48077;48.104;11.702;2023-02-01T09:05:27;95868.66;;;2.95;76.64
62103;BME280;48077;48.104;11.702;2023-02-01T09:07:51;95859.31;;;2.92;76.15
62103;BME280;48077;48.104;11.702;2023-02-01T09:10:14;95872.88;;;3.04;75.26
62103;BME280;48077;48.104;11.702;2023-02-01T09:12:38;95885.06;;;3.05;75.46
62103;BME280;48077;48.104;11.702;2023-02-01T09:15:01;95891.50;;;3.02;75.61
62103;BME280;48077;48.104;11.702;2023-02-01T09:17:26;95876.84;;;3.00;74.84
62103;BME280;48077;48.104;11.702;2023-02-01T09:19:50;95892.75;;;3.15;74.35
62103;BME280;48077;48.104;11.702;2023-02-01T09:22:15;95891.56;;;3.17;74.64
62103;BME280;48077;48.104;11.702;2023-02-01T09:24:39;95861.50;;;3.03;74.37
62103;BME280;48077;48.104;11.702;2023-02-01T09:27:02;95881.28;;;3.22;73.30
62103;BME280;48077;48.104;11.702;2023-02-01T09:29:25;95889.94;;;3.31;72.91
62103;BME280;48077;48.104;11.702;2023-02-01T09:31:49;95882.56;;;3.27;73.44
62103;BME280;48077;48.104;11.702;2023-02-01T09:34:12;95887.16;;;3.33;73.78
62103;BME280;48077;48.104;11.702;2023-02-01T09:36:36;95882.34;;;3.36;73.87
62103;BME280;48077;48.104;11.702;2023-02-01T09:38:59;95893.47;;;3.47;73.86
62103;BME280;48077;48.104;11.702;2023-02-01T09:46:41;95905.94;;;3.53;73.03
62103;BME280;48077;48.104;11.702;2023-02-01T09:49:18;95884.53;;;3.48;73.26
62103;BME280;48077;48.104;11.702;2023-02-01T09:51:46;95914.31;;;3.56;73.03
62103;BME280;48077;48.104;11.702;2023-02-01T09:54:17;95911.31;;;3.59;72.88
62103;BME280;48077;48.104;11.702;2023-02-01T09:56:49;95926.75;;;3.62;72.70
62103;BME280;48077;48.104;11.702;2023-02-01T10:01:45;95899.13;;;3.58;73.31
62103;BME280;48077;48.104;11.702;2023-02-01T10:04:12;95906.13;;;3.66;72.96
62103;BME280;48077;48.104;11.702;2023-02-01T10:09:41;95907.31;;;3.63;73.82
62103;BME280;48077;48.104;11.702;2023-02-01T10:17:48;95920.50;;;3.63;74.05
62103;BME280;48077;48.104;11.702;2023-02-01T10:20:36;95916.59;;;3.59;73.41
62103;BME280;48077;48.104;11.702;2023-02-01T10:23:32;95918.03;;;3.62;73.43
62103;BME280;48077;48.104;11.702;2023-02-01T10:26:06;95906.03;;;3.59;73.28
62103;BME280;48077;48.104;11.702;2023-02-01T10:28:34;95905.56;;;3.56;72.80
62103;BME280;48077;48.104;11.702;2023-02-01T10:31:00;95907.22;;;3.57;72.91
62103;BME280;48077;48.104;11.702;2023-02-01T10:33:26;95906.84;;;3.60;73.52
62103;BME280;48077;48.104;11.702;2023-02-01T10:35:56;95921.06;;;3.59;72.87
62103;BME280;48077;48.104;11.702;2023-02-01T10:38:27;95907.50;;;3.62;73.57
62103;BME280;48077;48.104;11.702;2023-02-01T10:40:58;95913.78;;;3.61;73.56
62103;BME280;48077;48.104;11.702;2023-02-01T10:43:24;95912.59;;;3.63;72.77
62103;BME280;48077;48.104;11.702;2023-02-01T10:45:47;95908.22;;;3.56;73.38
62103;BME280;48077;48.104;11.702;2023-02-01T10:48:10;95907.06;;;3.58;73.12
62103;BME280;48077;48.104;11.702;2023-02-01T10:50:35;95920.56;;;3.55;73.36
62103;BME280;48077;48.104;11.702;2023-02-01T10:53:15;95912.84;;;3.54;74.38
62103;BME280;48077;48.104;11.702;2023-02-01T10:58:18;95919.06;;;3.61;73.73
62103;BME280;48077;48.104;11.702;2023-02-01T11:01:01;95920.34;;;3.65;73.17
62103;BME280;48077;48.104;11.702;2023-02-01T11:08:48;95923.84;;;3.57;74.53
62103;BME280;48077;48.104;11.702;2023-02-01T11:11:12;95923.03;;;3.57;74.97
62103;BME280;48077;48.104;11.702;2023-02-01T11:13:38;95927.75;;;3.47;74.63
62103;BME280;48077;48.104;11.702;2023-02-01T11:16:03;95915.59;;;3.37;75.07
62103;BME280;48077;48.104;11.702;2023-02-01T11:18:29;95904.72;;;3.40;75.80
62103;BME280;48077;48.104;11.702;2023-02-01T11:20:52;95920.81;;;3.45;75.57
62103;BME280;48077;48.104;11.702;2023-02-01T11:23:20;95924.94;;;3.48;76.30
62103;BME280;48077;48.104;11.702;2023-02-01T11:28:15;95925.03;;;3.55;74.88
62103;BME280;48077;48.104;11.702;2023-02-01T11:30:41;95924.09;;;3.48;74.62
62103;BME280;48077;48.104;11.702;2023-02-01T11:33:13;95938.06;;;3.56;75.53
62103;BME280;48077;48.104;11.702;2023-02-01T11:35:38;95931.56;;;3.44;75.35
62103;BME280;48077;48.104;11.702;2023-02-01T11:38:22;95936.91;;;3.36;76.27
62103;BME280;48077;48.104;11.702;2023-02-01T11:40:45;95935.72;;;3.38;76.38
62103;BME280;48077;48.104;11.702;2023-02-01T11:43:28;95935.63;;;3.32;76.29
62103;BME280;48077;48.104;11.702;2023-02-01T11:46:00;95940.25;;;3.30;76.50
62103;BME280;48077;48.104;11.702;2023-02-01T11:48:25;95938.13;;;3.25;77.61
62103;BME280;48077;48.104;11.702;2023-02-01T11:54:08;95928.81;;;3.14;76.64
62103;BME280;48077;48.104;11.702;2023-02-01T11:59:27;95921.53;;;3.16;76.87
62103;BME280;48077;48.104;11.702;2023-02-01T12:13:44;95879.31;;;3.01;76.25
62103;BME280;48077;48.104;11.702;2023-02-01T12:16:19;95910.41;;;3.29;76.27
62103;BME280;48077;48.104;11.702;2023-02-01T12:24:46;95895.75;;;3.27;75.50
62103;BME280;48077;48.104;11.702;2023-02-01T12:32:39;95876.94;;;3.15;75.61
62103;BME280;48077;48.104;11.702;2023-02-01T12:38:22;95871.34;;;3.10;76.63
62103;BME280;48077;48.104;11.702;2023-02-01T12:41:20;95874.16;;;3.08;76.34
62103;BME280;48077;48.104;11.702;2023-02-01T12:43:53;95875.56;;;2.96;76.56
62103;BME280;48077;48.104;11.702;2023-02-01T12:46:26;95892.84;;;2.98;75.91
62103;BME280;48077;48.104;11.702;2023-02-01T12:49:19;95888.13;;;2.94;76.30
62103;BME280;48077;48.104;11.702;2023-02-01T12:51:49;95844.78;;;2.73;76.94
62103;BME280;48077;48.104;11.702;2023-02-01T12:57:04;95874.47;;;2.90;75.05
62103;BME280;48077;48.104;11.702;2023-02-01T12:59:35;95859.31;;;2.92;75.73
62103;BME280;48077;48.104;11.702;2023-02-01T13:02:18;95855.50;;;2.95;74.90
62103;BME280;48077;48.104;11.702;2023-02-01T13:04:52;95848.88;;;2.99;74.26
62103;BME280;48077;48.104;11.702;2023-02-01T13:07:21;95851.97;;;3.02;74.57
62103;BME280;48077;48.104;11.702;2023-02-01T13:09:47;95840.59;;;3.02;74.82
62103;BME280;48077;48.104;11.702;2023-02-01T13:12:21;95848.69;;;3.00;73.46
62103;BME280;48077;48.104;11.702;2023-02-01T13:15:00;95833.22;;;2.97;72.32
62103;BME280;48077;48.104;11.702;2023-02-01T13:17:29;95836.44;;;3.08;73.13
62103;BME280;48077;48.104;11.702;2023-02-01T13:20:04;95830.34;;;3.07;73.04
62103;BME280;48077;48.104;11.702;2023-02-01T13:22:32;95829.00;;;3.11;73.64
62103;BME280;48077;48.104;11.702;2023-02-01T13:25:03;95836.84;;;3.19;72.82
62103;BME280;48077;48.104;11.702;2023-02-01T13:27:28;95837.50;;;3.21;72.84
62103;BME280;48077;48.104;11.702;2023-02-01T13:29:57;95798.63;;;3.00;73.13
62103;BME280;48077;48.104;11.702;2023-02-01T13:35:21;95828.78;;;3.21;74.04
62103;BME280;48077;48.104;11.702;2023-02-01T13:43:27;95825.03;;;3.15;75.29
62103;BME280;48077;48.104;11.702;2023-02-01T13:45:57;95832.69;;;3.25;75.62
62103;BME280;48077;48.104;11.702;2023-02-01T13:48:35;95834.47;;;3.24;76.29
62103;BME280;48077;48.104;11.702;2023-02-01T13:51:01;95835.75;;;3.29;76.85
62103;BME280;48077;48.104;11.702;2023-02-01T13:53:29;95837.13;;;3.24;77.29
62103;BME280;48077;48.104;11.702;2023-02-01T13:55:58;95838.94;;;3.24;77.41
62103;BME280;48077;48.104;11.702;2023-02-01T13:58:34;95825.56;;;3.11;78.17
62103;BME280;48077;48.104;11.702;2023-02-01T14:03:59;95821.97;;;3.03;77.93
62103;BME280;48077;48.104;11.702;2023-02-01T14:14:37;95838.31;;;2.99;78.75
62103;BME280;48077;48.104;11.702;2023-02-01T14:19:36;95845.59;;;2.97;79.27
62103;BME280;48077;48.104;11.702;2023-02-01T14:24:56;95813.94;;;2.82;78.99
62103;BME280;48077;48.104;11.702;2023-02-01T14:30:14;95841.66;;;2.93;79.52
62103;BME280;48077;48.104;11.702;2023-02-01T14:32:40;95831.84;;;2.87;79.22
62103;BME280;48077;48.104;11.702;2023-02-01T14:35:12;95849.28;;;2.88;78.79
62103;BME280;48077;48.104;11.702;2023-02-01T14:37:39;95788.41;;;2.59;77.54
62103;BME280;48077;48.104;11.702;2023-02-01T14:40:05;95848.22;;;2.97;77.21
62103;BME280;48077;48.104;11.702;2023-02-01T14:42:49;95846.13;;;2.92;77.29
62103;BME280;48077;48.104;11.702;2023-02-01T14:53:10;95841.59;;;3.01;75.84
62103;BME280;48077;48.104;11.702;2023-02-01T14:56:04;95834.94;;;2.90;74.75
62103;BME280;48077;48.104;11.702;2023-02-01T14:58:56;95829.94;;;2.95;75.48